createdAt,value
2018-03-31T00:00:19.888Z,7.70
2018-03-31T00:02:48.300Z,7.80
2018-03-31T00:05:17.478Z,7.80
2018-03-31T00:07:46.689Z,7.80
2018-03-31T00:10:15.847Z,7.80
2018-03-31T00:12:44.294Z,7.70
2018-03-31T00:15:13.449Z,7.70
2018-03-31T00:17:42.636Z,7.80
2018-03-31T00:20:12.577Z,7.70
2018-03-31T00:22:42.164Z,7.80
2018-03-31T00:25:11.355Z,7.80
2018-03-31T00:27:40.508Z,7.80
2018-03-31T00:30:09.705Z,7.90
2018-03-31T00:32:38.149Z,7.80
2018-03-31T00:35:06.953Z,7.70
2018-03-31T00:37:35.398Z,7.80
2018-03-31T00:40:04.581Z,7.80
2018-03-31T00:42:33.799Z,7.80
2018-03-31T00:45:02.211Z,7.70
2018-03-31T00:47:31.389Z,7.60
2018-03-31T00:50:00.182Z,7.50
2018-03-31T00:52:29.381Z,7.50
2018-03-31T00:54:57.797Z,7.40
2018-03-31T00:57:26.588Z,7.30
2018-03-31T00:59:55.033Z,7.30
2018-03-31T01:02:23.833Z,7.40
2018-03-31T01:04:52.265Z,7.40
2018-03-31T01:07:21.079Z,7.40
2018-03-31T01:09:49.509Z,7.50
2018-03-31T01:12:18.321Z,7.40
2018-03-31T01:14:47.506Z,7.50
2018-03-31T01:17:15.959Z,7.50
2018-03-31T01:19:44.781Z,7.50
2018-03-31T01:22:13.964Z,7.40
2018-03-31T01:24:42.783Z,7.40
2018-03-31T01:27:11.999Z,7.50
2018-03-31T01:29:41.164Z,7.40
2018-03-31T01:32:10.336Z,7.40
2018-03-31T01:34:39.531Z,7.40
2018-03-31T01:37:07.948Z,7.40
2018-03-31T01:39:37.153Z,7.40
2018-03-31T01:42:05.557Z,7.40
2018-03-31T01:44:33.987Z,7.40
2018-03-31T01:47:03.549Z,7.50
2018-03-31T01:49:31.979Z,7.50
2018-03-31T01:52:01.173Z,7.50
2018-03-31T01:54:29.593Z,7.40
2018-03-31T01:56:58.382Z,7.40
2018-03-31T01:59:26.824Z,7.30
2018-03-31T02:01:55.227Z,7.40
2018-03-31T02:04:23.648Z,7.40
2018-03-31T02:06:52.537Z,7.40
2018-03-31T02:09:20.976Z,7.40
2018-03-31T02:11:49.375Z,7.30
2018-03-31T02:14:17.795Z,7.30
2018-03-31T02:16:46.231Z,7.40
2018-03-31T02:19:14.640Z,7.30
2018-03-31T02:21:43.044Z,7.20
2018-03-31T02:24:12.239Z,7.30
2018-03-31T02:26:41.442Z,7.30
2018-03-31T02:29:09.832Z,7.20
2018-03-31T02:31:38.264Z,7.10
2018-03-31T02:34:06.678Z,7.10
2018-03-31T02:36:35.879Z,7.10
2018-03-31T02:39:05.041Z,7.20
2018-03-31T02:41:33.469Z,7.30
2018-03-31T02:44:01.883Z,7.30
2018-03-31T02:46:30.302Z,7.30
2018-03-31T02:48:58.735Z,7.30
2018-03-31T02:51:27.127Z,7.30
2018-03-31T02:53:55.930Z,7.30
2018-03-31T02:56:24.345Z,7.30
2018-03-31T02:58:52.747Z,7.20
2018-03-31T03:01:21.179Z,7.30
2018-03-31T03:03:49.629Z,7.30
2018-03-31T03:06:18.049Z,7.20
2018-03-31T03:08:47.237Z,7.20
2018-03-31T03:11:15.669Z,7.10
2018-03-31T03:13:44.851Z,7.10
2018-03-31T03:16:14.036Z,7.20
2018-03-31T03:18:42.888Z,7.20
2018-03-31T03:21:12.068Z,7.20
2018-03-31T03:23:40.494Z,7.20
2018-03-31T03:26:09.693Z,7.20
2018-03-31T03:28:38.107Z,7.20
2018-03-31T03:31:06.512Z,7.30
2018-03-31T03:33:34.969Z,7.30
2018-03-31T03:36:04.154Z,7.20
2018-03-31T03:38:32.566Z,7.20
2018-03-31T03:41:01.000Z,7.20
2018-03-31T03:43:30.169Z,7.20
2018-03-31T03:45:59.363Z,7.10
2018-03-31T03:48:28.204Z,7.20
2018-03-31T03:50:56.621Z,7.20
2018-03-31T03:53:25.029Z,7.10
2018-03-31T03:55:53.471Z,7.10
2018-03-31T03:58:21.904Z,7.00
2018-03-31T04:00:51.459Z,7.00
2018-03-31T04:03:19.902Z,7.00
2018-03-31T04:05:48.308Z,7.00
2018-03-31T04:08:16.752Z,7.00
2018-03-31T04:10:45.929Z,6.90
2018-03-31T04:13:14.353Z,6.90
2018-03-31T04:15:43.562Z,6.80
2018-03-31T04:18:11.969Z,6.90
2018-03-31T04:20:41.141Z,6.90
2018-03-31T04:23:09.584Z,6.80
2018-03-31T04:25:38.507Z,6.90
2018-03-31T04:28:06.931Z,6.90
2018-03-31T04:30:37.225Z,6.90
2018-03-31T04:33:05.650Z,6.90
2018-03-31T04:35:34.468Z,6.90
2018-03-31T04:38:02.897Z,6.90
2018-03-31T04:40:31.703Z,6.90
2018-03-31T04:43:00.144Z,6.80
2018-03-31T04:45:29.348Z,6.80
2018-03-31T04:47:58.511Z,6.80
2018-03-31T04:50:26.916Z,6.90
2018-03-31T04:52:56.115Z,6.90
2018-03-31T04:55:25.301Z,6.80
2018-03-31T04:57:53.728Z,6.90
2018-03-31T05:00:22.136Z,6.90
2018-03-31T05:02:50.982Z,6.80
2018-03-31T05:05:19.409Z,6.80
2018-03-31T05:07:47.849Z,6.80
2018-03-31T05:10:16.266Z,6.80
2018-03-31T05:12:45.479Z,6.80
2018-03-31T05:15:13.891Z,6.80
2018-03-31T05:17:42.300Z,6.80
2018-03-31T05:20:11.618Z,6.70
2018-03-31T05:22:40.426Z,6.70
2018-03-31T05:25:08.853Z,6.70
2018-03-31T05:27:37.659Z,6.70
2018-03-31T05:30:06.469Z,6.70
2018-03-31T05:32:35.641Z,6.80
2018-03-31T05:35:04.072Z,6.80
2018-03-31T05:37:33.249Z,6.90
2018-03-31T05:40:02.163Z,6.80
2018-03-31T05:42:30.571Z,6.80
2018-03-31T05:44:58.999Z,6.70
2018-03-31T05:47:27.649Z,6.70
2018-03-31T05:49:56.849Z,6.80
2018-03-31T05:52:25.258Z,6.80
2018-03-31T05:54:53.675Z,6.80
2018-03-31T05:57:22.107Z,6.80
2018-03-31T05:59:51.309Z,6.80
2018-03-31T06:02:19.721Z,6.70
2018-03-31T06:04:48.901Z,6.70
2018-03-31T06:07:17.333Z,6.80
2018-03-31T06:09:45.774Z,6.80
2018-03-31T06:12:14.207Z,6.80
2018-03-31T06:14:42.620Z,6.70
2018-03-31T06:17:11.030Z,6.70
2018-03-31T06:19:39.862Z,6.80
2018-03-31T06:22:08.280Z,6.70
2018-03-31T06:24:37.441Z,6.80
2018-03-31T06:27:06.150Z,6.80
2018-03-31T06:29:34.590Z,6.60
2018-03-31T06:32:03.959Z,6.60
2018-03-31T06:34:32.704Z,5.90
2018-03-31T06:37:01.429Z,5.30
2018-03-31T06:39:31.076Z,6.80
2018-03-31T06:42:00.517Z,6.80
2018-03-31T06:44:28.982Z,6.80
2018-03-31T06:46:57.426Z,6.80
2018-03-31T06:49:25.862Z,6.90
2018-03-31T06:51:55.852Z,7.00
2018-03-31T06:54:25.047Z,7.00
2018-03-31T06:56:55.466Z,7.10
2018-03-31T06:59:23.984Z,7.10
2018-03-31T07:01:52.797Z,7.10
2018-03-31T07:04:21.638Z,7.20
2018-03-31T07:06:50.503Z,7.20
2018-03-31T07:09:18.954Z,7.20
2018-03-31T07:11:47.839Z,7.30
2018-03-31T07:14:16.570Z,7.30
2018-03-31T07:16:45.747Z,7.40
2018-03-31T07:19:15.997Z,7.30
2018-03-31T07:21:44.400Z,7.30
2018-03-31T07:27:10.659Z,7.20
2018-03-31T07:29:39.841Z,7.20
2018-03-31T07:32:09.779Z,7.30
2018-03-31T07:34:39.398Z,7.30
2018-03-31T07:37:07.842Z,7.30
2018-03-31T07:39:38.992Z,7.40
2018-03-31T07:42:07.829Z,7.40
2018-03-31T07:44:36.464Z,7.50
2018-03-31T07:47:04.932Z,7.60
2018-03-31T07:49:34.128Z,7.50
2018-03-31T07:52:04.458Z,7.40
2018-03-31T07:54:32.850Z,7.50
2018-03-31T07:57:02.142Z,7.30
2018-03-31T07:59:32.064Z,7.20
2018-03-31T08:02:01.285Z,7.10
2018-03-31T08:04:29.702Z,7.00
2018-03-31T08:06:58.724Z,7.10
2018-03-31T08:09:28.368Z,7.10
2018-03-31T08:11:58.089Z,7.20
2018-03-31T08:14:27.297Z,7.40
2018-03-31T08:16:55.719Z,7.50
2018-03-31T08:19:24.915Z,7.60
2018-03-31T08:21:54.136Z,7.60
2018-03-31T08:24:23.638Z,7.70
2018-03-31T08:26:52.885Z,7.70
2018-03-31T08:29:21.949Z,7.90
2018-03-31T08:31:51.289Z,7.90
2018-03-31T08:34:21.130Z,8.10
2018-03-31T08:36:50.576Z,8.30
2018-03-31T08:39:19.689Z,8.30
2018-03-31T08:41:48.420Z,8.40
2018-03-31T08:44:17.720Z,8.50
2018-03-31T08:46:46.877Z,8.70
2018-03-31T08:49:17.080Z,8.60
2018-03-31T08:51:47.963Z,8.80
2018-03-31T08:54:18.080Z,9.00
2018-03-31T08:56:47.399Z,9.00
2018-03-31T08:59:16.570Z,9.10
2018-03-31T09:01:45.033Z,9.00
2018-03-31T09:04:14.177Z,9.00
2018-03-31T09:06:43.920Z,9.20
2018-03-31T09:09:12.398Z,9.00
2018-03-31T09:11:40.781Z,9.00
2018-03-31T09:14:10.019Z,9.40
2018-03-31T09:16:39.243Z,9.50
2018-03-31T09:19:08.926Z,9.70
2018-03-31T09:21:38.531Z,9.80
2018-03-31T09:24:07.779Z,9.90
2018-03-31T09:26:36.992Z,9.90
2018-03-31T09:29:06.197Z,9.80
2018-03-31T09:31:35.538Z,9.70
2018-03-31T09:34:04.762Z,9.80
2018-03-31T09:36:33.970Z,9.90
2018-03-31T09:39:02.448Z,10.00
2018-03-31T09:41:30.881Z,10.20
2018-03-31T09:44:00.438Z,10.30
2018-03-31T09:46:29.277Z,10.10
2018-03-31T09:48:59.102Z,10.20
2018-03-31T09:51:28.572Z,10.20
2018-03-31T09:53:57.787Z,10.30
2018-03-31T09:56:26.852Z,10.30
2018-03-31T09:58:55.293Z,10.40
2018-03-31T10:01:25.580Z,10.30
2018-03-31T10:03:54.412Z,10.30
2018-03-31T10:06:23.239Z,10.30
2018-03-31T10:08:52.482Z,10.30
2018-03-31T10:11:20.918Z,10.30
2018-03-31T10:13:50.108Z,10.40
2018-03-31T10:16:19.299Z,10.30
2018-03-31T10:18:48.001Z,10.30
2018-03-31T10:21:17.255Z,10.20
2018-03-31T10:23:46.005Z,10.30
2018-03-31T10:26:14.420Z,10.30
2018-03-31T10:32:17.197Z,10.10
2018-03-31T10:34:48.038Z,10.10
2018-03-31T10:37:18.298Z,10.00
2018-03-31T10:39:47.187Z,10.10
2018-03-31T10:42:16.404Z,10.10
2018-03-31T10:44:45.413Z,10.20
2018-03-31T10:47:15.156Z,10.30
2018-03-31T10:49:44.033Z,10.60
2018-03-31T10:52:12.594Z,10.70
2018-03-31T10:54:41.178Z,10.80
2018-03-31T10:57:10.079Z,10.70
2018-03-31T10:59:38.503Z,10.90
2018-03-31T11:02:06.970Z,10.90
2018-03-31T11:04:35.393Z,10.70
2018-03-31T11:07:04.223Z,10.40
2018-03-31T11:09:33.287Z,10.40
2018-03-31T11:12:02.510Z,10.50
2018-03-31T11:14:30.992Z,10.60
2018-03-31T11:17:01.056Z,10.70
2018-03-31T11:19:29.905Z,10.70
2018-03-31T11:22:00.064Z,10.80
2018-03-31T11:24:29.865Z,10.90
2018-03-31T11:26:58.971Z,10.50
2018-03-31T11:29:27.397Z,10.70
2018-03-31T11:31:57.355Z,10.60
2018-03-31T11:34:25.827Z,10.70
2018-03-31T11:36:54.909Z,10.90
2018-03-31T11:39:23.671Z,10.80
2018-03-31T11:41:53.047Z,10.60
2018-03-31T11:44:21.971Z,10.60
2018-03-31T11:46:51.172Z,10.20
2018-03-31T11:49:21.065Z,10.20
2018-03-31T11:51:50.563Z,10.00
2018-03-31T11:54:19.000Z,9.80
2018-03-31T11:56:48.217Z,9.50
2018-03-31T11:59:16.725Z,9.50
2018-03-31T12:01:45.916Z,9.40
2018-03-31T12:04:15.119Z,9.40
2018-03-31T12:06:44.035Z,9.40
2018-03-31T12:09:13.255Z,9.30
2018-03-31T12:11:42.120Z,9.10
2018-03-31T12:14:11.294Z,9.20
2018-03-31T12:16:40.134Z,9.20
2018-03-31T12:19:09.302Z,9.20
2018-03-31T12:21:38.253Z,9.20
2018-03-31T12:24:07.482Z,9.20
2018-03-31T12:26:36.644Z,9.30
2018-03-31T12:29:06.743Z,9.30
2018-03-31T12:31:36.729Z,9.40
2018-03-31T12:34:06.360Z,9.40
2018-03-31T12:36:35.656Z,9.30
2018-03-31T12:39:05.370Z,9.50
2018-03-31T12:41:33.819Z,9.50
2018-03-31T12:44:02.479Z,9.60
2018-03-31T12:46:31.749Z,9.80
2018-03-31T12:49:00.166Z,10.10
2018-03-31T12:51:28.588Z,10.30
2018-03-31T12:53:57.101Z,10.40
2018-03-31T12:56:25.576Z,10.60
2018-03-31T12:58:54.404Z,10.60
2018-03-31T13:01:22.871Z,10.60
2018-03-31T13:03:52.065Z,10.60
2018-03-31T13:06:21.557Z,10.80
2018-03-31T13:08:49.988Z,11.10
2018-03-31T13:11:18.416Z,11.30
2018-03-31T13:13:47.302Z,11.40
2018-03-31T13:16:15.859Z,11.50
2018-03-31T13:18:44.293Z,11.60
2018-03-31T13:21:14.094Z,11.60
2018-03-31T13:23:42.578Z,11.50
2018-03-31T13:26:12.211Z,11.40
2018-03-31T13:28:42.477Z,11.60
2018-03-31T13:31:10.959Z,12.00
2018-03-31T13:33:39.423Z,12.60
2018-03-31T13:36:08.684Z,13.30
2018-03-31T13:38:37.785Z,13.90
2018-03-31T13:41:06.258Z,14.20
2018-03-31T13:43:35.946Z,14.20
2018-03-31T13:46:05.157Z,13.60
2018-03-31T13:48:34.794Z,13.50
2018-03-31T13:51:03.244Z,13.80
2018-03-31T13:53:32.091Z,14.10
2018-03-31T13:56:00.540Z,14.20
2018-03-31T13:58:29.273Z,14.10
2018-03-31T14:00:59.372Z,14.40
2018-03-31T14:03:28.612Z,14.60
2018-03-31T14:05:58.092Z,15.30
2018-03-31T14:08:27.271Z,15.20
2018-03-31T14:10:55.723Z,15.20
2018-03-31T14:13:24.904Z,15.20
2018-03-31T14:15:54.117Z,15.10
2018-03-31T14:18:22.537Z,14.60
2018-03-31T14:20:51.792Z,13.80
2018-03-31T14:23:20.640Z,13.40
2018-03-31T14:25:49.952Z,12.80
2018-03-31T14:28:19.848Z,12.60
2018-03-31T14:30:48.846Z,12.40
2018-03-31T14:33:19.040Z,12.10
2018-03-31T14:35:48.293Z,11.90
2018-03-31T14:38:17.313Z,11.60
2018-03-31T14:40:45.743Z,11.60
2018-03-31T14:43:15.816Z,11.70
2018-03-31T14:45:45.074Z,11.50
2018-03-31T14:48:13.925Z,11.20
2018-03-31T14:50:43.364Z,11.10
2018-03-31T14:53:12.248Z,11.00
2018-03-31T14:55:40.717Z,10.90
2018-03-31T14:58:09.962Z,10.80
2018-03-31T15:00:38.380Z,10.60
2018-03-31T15:03:07.281Z,10.50
2018-03-31T15:05:35.720Z,10.50
2018-03-31T15:08:05.993Z,10.30
2018-03-31T15:10:35.430Z,10.20
2018-03-31T15:13:03.833Z,10.00
2018-03-31T15:15:32.250Z,10.00
2018-03-31T15:18:01.129Z,10.10
2018-03-31T15:20:30.335Z,10.20
2018-03-31T15:22:58.934Z,10.20
2018-03-31T15:25:27.963Z,10.40
2018-03-31T15:27:56.419Z,10.50
2018-03-31T15:30:24.856Z,10.50
2018-03-31T15:32:53.329Z,10.40
2018-03-31T15:35:22.219Z,10.10
2018-03-31T15:37:50.712Z,10.10
2018-03-31T15:40:19.936Z,10.20
2018-03-31T15:42:48.443Z,10.10
2018-03-31T15:45:18.313Z,10.10
2018-03-31T15:47:46.788Z,10.10
2018-03-31T15:50:15.231Z,10.20
2018-03-31T15:52:44.346Z,10.30
2018-03-31T15:55:14.639Z,10.20
2018-03-31T15:57:43.572Z,10.20
2018-03-31T16:00:12.397Z,10.10
2018-03-31T16:02:41.657Z,10.10
2018-03-31T16:05:10.643Z,10.10
2018-03-31T16:07:40.825Z,10.10
2018-03-31T16:10:09.642Z,10.40
2018-03-31T16:12:39.703Z,10.50
2018-03-31T16:15:08.145Z,10.60
2018-03-31T16:17:37.229Z,10.60
2018-03-31T16:20:06.091Z,10.60
2018-03-31T16:22:34.568Z,10.50
2018-03-31T16:25:03.100Z,10.30
2018-03-31T16:27:32.376Z,10.20
2018-03-31T16:30:01.609Z,10.20
2018-03-31T16:32:30.888Z,10.50
2018-03-31T16:34:59.927Z,10.60
2018-03-31T16:37:28.787Z,10.50
2018-03-31T16:39:58.326Z,10.40
2018-03-31T16:42:28.378Z,10.40
2018-03-31T16:44:57.230Z,10.10
2018-03-31T16:47:26.079Z,9.80
2018-03-31T16:49:55.389Z,9.70
2018-03-31T16:52:25.764Z,9.70
2018-03-31T16:54:54.223Z,9.60
2018-03-31T16:57:22.715Z,9.60
2018-03-31T16:59:51.541Z,9.60
2018-03-31T17:02:20.837Z,9.80
2018-03-31T17:04:49.304Z,9.80
2018-03-31T17:07:17.728Z,10.10
2018-03-31T17:09:46.183Z,9.90
2018-03-31T17:12:14.612Z,9.90
2018-03-31T17:14:43.080Z,9.60
2018-03-31T17:17:11.890Z,9.50
2018-03-31T17:19:40.323Z,9.50
2018-03-31T17:22:09.917Z,9.30
2018-03-31T17:24:39.106Z,8.90
2018-03-31T17:27:07.949Z,8.70
2018-03-31T17:29:36.392Z,8.70
2018-03-31T17:32:04.805Z,8.60
2018-03-31T17:34:33.231Z,8.50
2018-03-31T17:37:02.056Z,8.50
2018-03-31T17:39:30.478Z,8.30
2018-03-31T17:41:59.706Z,8.20
2018-03-31T17:44:28.115Z,8.10
2018-03-31T17:46:56.570Z,8.00
2018-03-31T17:49:24.985Z,8.10
2018-03-31T17:51:53.454Z,8.10
2018-03-31T17:54:21.881Z,8.00
2018-03-31T17:56:51.157Z,7.90
2018-03-31T17:59:21.607Z,7.80
2018-03-31T18:01:50.417Z,7.80
2018-03-31T18:04:18.862Z,7.80
2018-03-31T18:06:47.318Z,7.70
2018-03-31T18:09:16.120Z,7.80
2018-03-31T18:11:44.553Z,7.60
2018-03-31T18:14:13.098Z,7.60
2018-03-31T18:16:41.988Z,7.50
2018-03-31T18:19:11.206Z,7.50
2018-03-31T18:21:40.490Z,7.40
2018-03-31T18:24:08.886Z,7.40
2018-03-31T18:26:38.068Z,7.40
2018-03-31T18:29:06.536Z,7.40
2018-03-31T18:31:34.996Z,7.40
2018-03-31T18:34:03.498Z,7.20
2018-03-31T18:36:32.659Z,7.20
2018-03-31T18:39:01.155Z,7.30
2018-03-31T18:41:29.525Z,7.10
2018-03-31T18:43:59.478Z,7.10
2018-03-31T18:46:28.765Z,7.10
2018-03-31T18:48:57.656Z,7.10
2018-03-31T18:51:26.168Z,7.20
2018-03-31T18:53:54.580Z,7.10
2018-03-31T18:56:23.020Z,7.00
2018-03-31T18:58:51.945Z,6.90
2018-03-31T19:01:20.406Z,6.90
2018-03-31T19:03:49.610Z,7.00
2018-03-31T19:06:18.029Z,6.90
2018-03-31T19:08:47.956Z,6.80
2018-03-31T19:11:17.193Z,6.80
2018-03-31T19:13:45.610Z,6.90
2018-03-31T19:16:14.830Z,6.90
2018-03-31T19:18:43.665Z,6.90
2018-03-31T19:21:12.856Z,6.80
2018-03-31T19:23:41.304Z,6.80
2018-03-31T19:26:10.489Z,6.90
2018-03-31T19:28:39.339Z,6.80
2018-03-31T19:31:08.593Z,6.70
2018-03-31T19:33:37.020Z,6.80
2018-03-31T19:36:12.322Z,6.70
2018-03-31T19:38:40.821Z,6.70
2018-03-31T19:41:10.021Z,6.60
2018-03-31T19:43:38.485Z,6.60
2018-03-31T19:46:07.662Z,6.60
2018-03-31T19:48:36.885Z,6.60
2018-03-31T19:51:05.744Z,6.50
2018-03-31T19:53:35.037Z,7.40
2018-03-31T19:56:04.157Z,6.50
2018-03-31T19:58:32.971Z,6.50
2018-03-31T20:01:02.247Z,6.50
2018-03-31T20:03:31.435Z,6.50
2018-03-31T20:06:00.266Z,6.50
2018-03-31T20:08:28.725Z,6.40
2018-03-31T20:10:57.146Z,6.40
2018-03-31T20:13:26.382Z,6.40
2018-03-31T20:15:54.834Z,6.30
2018-03-31T20:18:24.045Z,6.30
2018-03-31T20:20:53.256Z,6.30
2018-03-31T20:23:22.145Z,6.30
2018-03-31T20:25:51.019Z,6.20
2018-03-31T20:28:19.883Z,6.10
2018-03-31T20:30:48.706Z,6.10
2018-03-31T20:33:17.931Z,6.00
2018-03-31T20:35:47.191Z,6.10
2018-03-31T20:38:16.380Z,6.00
2018-03-31T20:40:44.918Z,6.10
2018-03-31T20:43:13.429Z,6.00
2018-03-31T20:45:41.792Z,6.00
2018-03-31T20:48:10.977Z,6.00
2018-03-31T20:50:39.844Z,6.00
2018-03-31T20:53:09.088Z,6.00
2018-03-31T20:55:37.541Z,5.80
2018-03-31T20:58:06.798Z,5.80
2018-03-31T21:00:36.958Z,5.60
2018-03-31T21:03:05.363Z,5.60
2018-03-31T21:05:33.830Z,5.60
2018-03-31T21:08:02.260Z,5.60
2018-03-31T21:10:31.180Z,5.60
2018-03-31T21:13:01.150Z,5.70
2018-03-31T21:15:30.364Z,5.80
2018-03-31T21:17:58.807Z,5.80
2018-03-31T21:20:28.027Z,5.80
2018-03-31T21:22:57.210Z,5.90
2018-03-31T21:25:26.442Z,5.90
2018-03-31T21:27:54.866Z,5.80
2018-03-31T21:30:23.333Z,5.60
2018-03-31T21:32:51.844Z,5.60
2018-03-31T21:35:20.276Z,5.70
2018-03-31T21:37:48.827Z,5.80
2018-03-31T21:40:18.124Z,5.80
2018-03-31T21:42:47.321Z,5.80
2018-03-31T21:45:16.519Z,5.90
2018-03-31T21:47:44.941Z,5.90
2018-03-31T21:50:13.646Z,5.80
2018-03-31T21:52:42.061Z,5.80
2018-03-31T21:55:10.878Z,5.90
2018-03-31T21:57:39.814Z,6.00
2018-03-31T22:00:09.010Z,6.00
2018-03-31T22:02:38.964Z,6.00
2018-03-31T22:05:07.434Z,6.00
2018-03-31T22:07:36.643Z,6.00
2018-03-31T22:10:05.812Z,5.90
2018-03-31T22:12:34.996Z,6.00
2018-03-31T22:15:09.321Z,6.00
2018-03-31T22:17:38.164Z,6.00
2018-03-31T22:20:06.583Z,6.10
2018-03-31T22:22:35.026Z,6.10
2018-03-31T22:25:04.198Z,6.10
2018-03-31T22:27:33.300Z,6.00
2018-03-31T22:30:02.145Z,5.90
2018-03-31T22:32:31.133Z,5.80
2018-03-31T22:35:01.085Z,5.70
2018-03-31T22:37:30.291Z,5.70
2018-03-31T22:39:59.129Z,5.70
2018-03-31T22:42:27.555Z,5.80
2018-03-31T22:44:55.990Z,5.80
2018-03-31T22:47:24.410Z,5.70
2018-03-31T22:49:52.981Z,5.80
2018-03-31T22:52:22.155Z,5.90
2018-03-31T22:54:51.377Z,5.90
2018-03-31T22:57:19.821Z,7.00
2018-03-31T22:59:48.234Z,5.60
2018-03-31T23:02:17.431Z,5.50
2018-03-31T23:04:46.624Z,5.40
2018-03-31T23:07:15.803Z,5.40
2018-03-31T23:09:44.546Z,5.20
2018-03-31T23:12:12.970Z,5.10
2018-03-31T23:14:42.152Z,5.00
2018-03-31T23:17:10.613Z,5.00
2018-03-31T23:19:39.441Z,4.80
2018-03-31T23:22:07.916Z,4.70
2018-03-31T23:24:36.329Z,4.60
2018-03-31T23:27:04.754Z,4.40
2018-03-31T23:29:33.185Z,4.30
2018-03-31T23:32:03.225Z,4.30
2018-03-31T23:34:31.691Z,4.20
2018-03-31T23:37:00.888Z,4.20
2018-03-31T23:39:30.078Z,4.10
2018-03-31T23:41:58.518Z,4.00
2018-03-31T23:44:26.934Z,3.90
2018-03-31T23:46:55.349Z,3.80
2018-03-31T23:49:24.545Z,3.80
2018-03-31T23:51:52.957Z,3.80
2018-03-31T23:54:21.460Z,3.80
2018-03-31T23:56:50.630Z,3.70
2018-03-31T23:59:19.044Z,3.70
